Main page
METAR-TAF:

METAR-TAF

Airports :

Sligo Airport

Sligo, Ireland

latitude: 54-16-49N, longitude: 8-35-57W, elevation: 3 m

Current weather observation

The report was made 5 hours and 10 minutes ago, at 17:00 UTC
Wind 12 kt from the West/Northwest
Temperature 5°C
Humidity 75%
Pressure 999 hPa
Visibility 10 km or more
no clouds below 1500 m and no cumulonimbus

METAR: EISG 221700Z 30012KT CAVOK 05/01 Q0999

Time: 22:10 (22:10 UTC)

Forecast

The report was made 2 hours and 10 minutes ago, at 20:00 UTC
Forecast valid from 22 at 21 UTC to 23 at 06 UTC
Wind 14 kt from the West/Northwest
Visibility 10 km or more
Scattered clouds at a height of 2000 ft
Broken clouds at a height of 4000 ft
Temporary
from 22 at 21 UTC to 23 at 03 UTC
Scattered clouds at a height of 1800 ft, Cumulonimbus.
light rain showers

TAF: EISG 222000Z 2221/2306 30014KT 9999 SCT020 BKN040 TEMPO 2221/2303 -SHRA SCT018CB

Weather observations and forecasts of more than 4000 airports (METAR and TAF reports).

The available stations are represented by yellow and red dots on the map.

Hover mouse over dot to see the name of the station.

Then click to see weather observations and forecasts.

To change the map : click on the green buttons with a black cross to zoom in, on the green button with a dash to zoom out, or on the green arrows for adjacent maps.


METAR-TAF: